sensor_id;sensor_type;location;lat;lon;timestamp;pressure;altitude;pressure_sealevel;temperature;humidity
82160;BME280;71734;50.876;7.372;2023-08-12T00:00:38;99307.13;;;22.29;73.73
82160;BME280;71734;50.876;7.372;2023-08-12T00:03:05;99304.78;;;22.36;72.94
82160;BME280;71734;50.876;7.372;2023-08-12T00:05:31;99304.03;;;22.22;73.57
82160;BME280;71734;50.876;7.372;2023-08-12T00:07:58;99309.19;;;22.14;74.57
82160;BME280;71734;50.876;7.372;2023-08-12T00:10:24;99315.19;;;22.18;74.30
82160;BME280;71734;50.876;7.372;2023-08-12T00:12:51;99316.56;;;22.12;74.60
82160;BME280;71734;50.876;7.372;2023-08-12T00:15:17;99329.91;;;22.03;75.35
82160;BME280;71734;50.876;7.372;2023-08-12T00:17:45;99319.97;;;22.03;75.41
82160;BME280;71734;50.876;7.372;2023-08-12T00:20:12;99335.91;;;21.95;76.13
82160;BME280;71734;50.876;7.372;2023-08-12T00:22:39;99338.88;;;22.03;76.00
82160;BME280;71734;50.876;7.372;2023-08-12T00:25:06;99333.22;;;21.95;76.22
82160;BME280;71734;50.876;7.372;2023-08-12T00:27:33;99333.84;;;21.99;76.40
82160;BME280;71734;50.876;7.372;2023-08-12T00:30:00;99338.25;;;22.00;76.53
82160;BME280;71734;50.876;7.372;2023-08-12T00:32:26;99331.72;;;21.91;77.34
82160;BME280;71734;50.876;7.372;2023-08-12T00:34:56;99325.31;;;21.81;77.29
82160;BME280;71734;50.876;7.372;2023-08-12T00:37:23;99312.56;;;21.72;77.65
82160;BME280;71734;50.876;7.372;2023-08-12T00:42:23;99325.19;;;21.83;77.13
82160;BME280;71734;50.876;7.372;2023-08-12T00:44:49;99344.69;;;21.86;77.39
82160;BME280;71734;50.876;7.372;2023-08-12T00:47:16;99339.28;;;21.75;77.97
82160;BME280;71734;50.876;7.372;2023-08-12T00:49:43;99340.22;;;21.63;78.10
82160;BME280;71734;50.876;7.372;2023-08-12T00:52:45;99345.13;;;21.69;77.56
82160;BME280;71734;50.876;7.372;2023-08-12T00:55:29;99321.53;;;21.49;78.87
82160;BME280;71734;50.876;7.372;2023-08-12T00:58:02;99330.53;;;21.60;77.64
82160;BME280;71734;50.876;7.372;2023-08-12T01:01:01;99319.13;;;21.57;77.29
82160;BME280;71734;50.876;7.372;2023-08-12T01:03:43;99313.97;;;21.54;77.94
82160;BME280;71734;50.876;7.372;2023-08-12T01:06:16;99303.88;;;21.45;78.15
82160;BME280;71734;50.876;7.372;2023-08-12T01:08:44;99291.16;;;21.47;77.36
82160;BME280;71734;50.876;7.372;2023-08-12T01:14:10;99284.03;;;21.46;77.97
82160;BME280;71734;50.876;7.372;2023-08-12T01:16:45;99279.00;;;21.52;77.28
82160;BME280;71734;50.876;7.372;2023-08-12T01:19:21;99296.53;;;21.47;77.37
82160;BME280;71734;50.876;7.372;2023-08-12T01:21:53;99280.81;;;21.41;76.88
82160;BME280;71734;50.876;7.372;2023-08-12T01:24:24;99306.53;;;21.33;77.56
82160;BME280;71734;50.876;7.372;2023-08-12T01:26:55;99299.44;;;21.32;78.13
82160;BME280;71734;50.876;7.372;2023-08-12T01:29:26;99278.00;;;21.31;78.43
82160;BME280;71734;50.876;7.372;2023-08-12T01:31:58;99287.78;;;21.32;77.99
82160;BME280;71734;50.876;7.372;2023-08-12T01:34:34;99283.38;;;21.31;77.65
82160;BME280;71734;50.876;7.372;2023-08-12T01:37:09;99280.28;;;21.24;78.57
82160;BME280;71734;50.876;7.372;2023-08-12T01:39:39;99283.31;;;21.20;78.60
82160;BME280;71734;50.876;7.372;2023-08-12T01:42:09;99271.69;;;21.19;78.37
82160;BME280;71734;50.876;7.372;2023-08-12T01:44:36;99272.97;;;21.26;78.07
82160;BME280;71734;50.876;7.372;2023-08-12T01:47:03;99262.78;;;21.30;77.49
82160;BME280;71734;50.876;7.372;2023-08-12T01:49:34;99278.09;;;21.29;77.87
82160;BME280;71734;50.876;7.372;2023-08-12T01:52:04;99268.97;;;21.19;78.00
82160;BME280;71734;50.876;7.372;2023-08-12T01:54:31;99276.97;;;21.21;77.96
82160;BME280;71734;50.876;7.372;2023-08-12T01:57:04;99289.31;;;21.12;78.24
82160;BME280;71734;50.876;7.372;2023-08-12T01:59:33;99282.53;;;21.07;79.11
82160;BME280;71734;50.876;7.372;2023-08-12T02:02:00;99283.56;;;20.93;79.96
82160;BME280;71734;50.876;7.372;2023-08-12T02:04:27;99279.69;;;21.08;79.10
82160;BME280;71734;50.876;7.372;2023-08-12T02:06:58;99273.06;;;21.01;79.31
82160;BME280;71734;50.876;7.372;2023-08-12T02:09:29;99269.59;;;20.99;79.90
82160;BME280;71734;50.876;7.372;2023-08-12T02:12:10;99265.84;;;21.25;77.82
82160;BME280;71734;50.876;7.372;2023-08-12T02:14:44;99253.06;;;21.16;78.52
82160;BME280;71734;50.876;7.372;2023-08-12T02:17:10;99243.91;;;21.19;79.56
82160;BME280;71734;50.876;7.372;2023-08-12T02:19:37;99247.13;;;21.11;79.42
82160;BME280;71734;50.876;7.372;2023-08-12T02:22:12;99240.97;;;21.33;77.89
82160;BME280;71734;50.876;7.372;2023-08-12T02:24:41;99231.06;;;21.33;78.34
82160;BME280;71734;50.876;7.372;2023-08-12T02:27:12;99233.94;;;21.19;78.92
82160;BME280;71734;50.876;7.372;2023-08-12T02:29:41;99236.16;;;21.14;78.40
82160;BME280;71734;50.876;7.372;2023-08-12T02:32:10;99233.63;;;21.11;78.36
82160;BME280;71734;50.876;7.372;2023-08-12T02:34:57;99230.19;;;20.98;78.99
82160;BME280;71734;50.876;7.372;2023-08-12T02:37:24;99223.16;;;20.84;79.82
82160;BME280;71734;50.876;7.372;2023-08-12T02:39:54;99227.44;;;20.87;79.38
82160;BME280;71734;50.876;7.372;2023-08-12T02:42:22;99228.47;;;20.97;78.84
82160;BME280;71734;50.876;7.372;2023-08-12T02:44:50;99231.69;;;21.02;78.80
82160;BME280;71734;50.876;7.372;2023-08-12T02:47:17;99226.03;;;21.05;79.04
82160;BME280;71734;50.876;7.372;2023-08-12T02:49:45;99224.84;;;21.09;78.52
82160;BME280;71734;50.876;7.372;2023-08-12T02:52:13;99233.28;;;20.81;80.22
82160;BME280;71734;50.876;7.372;2023-08-12T02:54:39;99232.59;;;20.90;79.62
82160;BME280;71734;50.876;7.372;2023-08-12T02:57:06;99237.22;;;20.88;79.84
82160;BME280;71734;50.876;7.372;2023-08-12T02:59:34;99232.59;;;20.90;79.91
82160;BME280;71734;50.876;7.372;2023-08-12T03:02:00;99231.84;;;20.88;79.92
82160;BME280;71734;50.876;7.372;2023-08-12T03:04:28;99226.72;;;20.61;80.27
82160;BME280;71734;50.876;7.372;2023-08-12T03:06:57;99226.41;;;20.77;79.92
82160;BME280;71734;50.876;7.372;2023-08-12T03:09:24;99214.59;;;20.43;81.07
82160;BME280;71734;50.876;7.372;2023-08-12T03:11:50;99221.63;;;20.46;81.33
82160;BME280;71734;50.876;7.372;2023-08-12T03:14:17;99221.94;;;20.41;81.73
82160;BME280;71734;50.876;7.372;2023-08-12T03:16:45;99215.75;;;20.15;82.52
82160;BME280;71734;50.876;7.372;2023-08-12T03:19:12;99219.06;;;20.31;81.91
82160;BME280;71734;50.876;7.372;2023-08-12T03:21:39;99209.47;;;20.64;79.85
82160;BME280;71734;50.876;7.372;2023-08-12T03:24:06;99200.94;;;20.70;79.46
82160;BME280;71734;50.876;7.372;2023-08-12T03:26:32;99205.31;;;20.71;80.25
82160;BME280;71734;50.876;7.372;2023-08-12T03:28:59;99197.88;;;20.51;80.76
82160;BME280;71734;50.876;7.372;2023-08-12T03:31:25;99198.44;;;20.43;80.93
82160;BME280;71734;50.876;7.372;2023-08-12T03:33:53;99195.03;;;20.41;81.31
82160;BME280;71734;50.876;7.372;2023-08-12T03:36:20;99198.06;;;20.24;81.42
82160;BME280;71734;50.876;7.372;2023-08-12T03:38:46;99193.41;;;20.38;80.81
82160;BME280;71734;50.876;7.372;2023-08-12T03:41:15;99191.53;;;20.15;82.00
82160;BME280;71734;50.876;7.372;2023-08-12T03:43:47;99179.41;;;19.97;82.43
82160;BME280;71734;50.876;7.372;2023-08-12T03:46:16;99170.97;;;19.78;83.75
82160;BME280;71734;50.876;7.372;2023-08-12T03:48:43;99166.84;;;19.85;83.33
82160;BME280;71734;50.876;7.372;2023-08-12T03:51:17;99173.28;;;19.95;82.89
82160;BME280;71734;50.876;7.372;2023-08-12T03:54:09;99164.09;;;19.74;83.53
82160;BME280;71734;50.876;7.372;2023-08-12T03:56:50;99161.63;;;19.71;83.78
82160;BME280;71734;50.876;7.372;2023-08-12T03:59:24;99158.94;;;19.71;83.74
82160;BME280;71734;50.876;7.372;2023-08-12T04:02:12;99165.81;;;20.11;81.72
82160;BME280;71734;50.876;7.372;2023-08-12T04:04:46;99173.53;;;19.92;82.61
82160;BME280;71734;50.876;7.372;2023-08-12T04:07:24;99166.31;;;19.92;82.61
82160;BME280;71734;50.876;7.372;2023-08-12T04:10:07;99154.53;;;20.06;82.17
82160;BME280;71734;50.876;7.372;2023-08-12T04:12:57;99155.44;;;20.30;80.79
82160;BME280;71734;50.876;7.372;2023-08-12T04:15:26;99156.25;;;20.07;82.21
82160;BME280;71734;50.876;7.372;2023-08-12T04:18:12;99146.81;;;19.89;82.46
82160;BME280;71734;50.876;7.372;2023-08-12T04:22:16;99143.16;;;19.90;82.34
82160;BME280;71734;50.876;7.372;2023-08-12T04:25:06;99137.94;;;20.12;81.67
82160;BME280;71734;50.876;7.372;2023-08-12T04:33:33;99135.28;;;19.63;83.66
82160;BME280;71734;50.876;7.372;2023-08-12T04:36:11;99122.41;;;19.56;83.85
82160;BME280;71734;50.876;7.372;2023-08-12T04:39:03;99114.19;;;19.70;83.30
82160;BME280;71734;50.876;7.372;2023-08-12T04:45:44;99108.38;;;19.76;82.81
82160;BME280;71734;50.876;7.372;2023-08-12T04:48:59;99115.44;;;19.77;82.91
82160;BME280;71734;50.876;7.372;2023-08-12T05:46:15;99124.03;;;19.82;84.83
82160;BME280;71734;50.876;7.372;2023-08-12T05:48:43;99127.25;;;19.87;84.97
82160;BME280;71734;50.876;7.372;2023-08-12T05:51:09;99124.03;;;19.82;85.35
82160;BME280;71734;50.876;7.372;2023-08-12T05:53:36;99136.16;;;20.00;84.80
82160;BME280;71734;50.876;7.372;2023-08-12T05:56:04;99130.25;;;19.95;84.77
82160;BME280;71734;50.876;7.372;2023-08-12T05:58:31;99133.25;;;20.03;84.03
82160;BME280;71734;50.876;7.372;2023-08-12T06:00:57;99138.09;;;19.98;85.28
82160;BME280;71734;50.876;7.372;2023-08-12T06:03:25;99143.22;;;20.01;84.95
82160;BME280;71734;50.876;7.372;2023-08-12T06:05:51;99141.97;;;19.94;85.47
82160;BME280;71734;50.876;7.372;2023-08-12T06:08:18;99154.00;;;20.01;84.61
82160;BME280;71734;50.876;7.372;2023-08-12T06:10:44;99152.31;;;20.00;85.61
82160;BME280;71734;50.876;7.372;2023-08-12T06:13:11;99159.84;;;19.95;85.23
82160;BME280;71734;50.876;7.372;2023-08-12T06:15:37;99157.06;;;19.97;85.91
82160;BME280;71734;50.876;7.372;2023-08-12T06:18:05;99171.63;;;20.05;85.18
82160;BME280;71734;50.876;7.372;2023-08-12T06:20:33;99184.06;;;19.95;85.97
82160;BME280;71734;50.876;7.372;2023-08-12T06:23:00;99171.50;;;19.83;85.87
82160;BME280;71734;50.876;7.372;2023-08-12T06:25:29;99193.75;;;19.85;86.09
82160;BME280;71734;50.876;7.372;2023-08-12T06:27:55;99190.84;;;19.88;84.78
82160;BME280;71734;50.876;7.372;2023-08-12T06:30:24;99175.28;;;19.68;86.76
82160;BME280;71734;50.876;7.372;2023-08-12T06:32:53;99173.56;;;19.67;86.87
82160;BME280;71734;50.876;7.372;2023-08-12T06:35:20;99159.03;;;19.57;87.27
82160;BME280;71734;50.876;7.372;2023-08-12T06:37:48;99136.47;;;19.72;86.18
82160;BME280;71734;50.876;7.372;2023-08-12T06:40:15;99125.25;;;19.65;86.63
82160;BME280;71734;50.876;7.372;2023-08-12T06:42:57;99123.66;;;19.63;85.89
82160;BME280;71734;50.876;7.372;2023-08-12T06:45:24;99115.38;;;19.40;86.65
82160;BME280;71734;50.876;7.372;2023-08-12T06:47:50;99127.31;;;19.36;86.57
82160;BME280;71734;50.876;7.372;2023-08-12T06:50:17;99138.94;;;19.37;86.14
82160;BME280;71734;50.876;7.372;2023-08-12T06:52:43;99138.22;;;19.47;86.06
82160;BME280;71734;50.876;7.372;2023-08-12T06:55:11;99149.84;;;19.48;85.58
82160;BME280;71734;50.876;7.372;2023-08-12T06:57:37;99128.75;;;19.55;85.82
82160;BME280;71734;50.876;7.372;2023-08-12T07:00:05;99113.56;;;19.54;86.08
82160;BME280;71734;50.876;7.372;2023-08-12T07:02:32;99099.81;;;19.58;86.05
82160;BME280;71734;50.876;7.372;2023-08-12T07:04:58;99079.75;;;19.75;84.38
82160;BME280;71734;50.876;7.372;2023-08-12T07:07:25;99087.84;;;19.62;85.74
82160;BME280;71734;50.876;7.372;2023-08-12T07:09:51;99088.94;;;19.60;85.79
82160;BME280;71734;50.876;7.372;2023-08-12T07:12:19;99079.78;;;19.62;86.31
82160;BME280;71734;50.876;7.372;2023-08-12T07:14:45;99079.81;;;19.86;85.22
82160;BME280;71734;50.876;7.372;2023-08-12T07:17:20;99088.13;;;19.83;86.10
82160;BME280;71734;50.876;7.372;2023-08-12T07:19:47;99083.03;;;19.91;86.41
82160;BME280;71734;50.876;7.372;2023-08-12T07:22:13;99077.03;;;19.87;86.23
82160;BME280;71734;50.876;7.372;2023-08-12T07:24:43;99071.19;;;19.93;86.52
82160;BME280;71734;50.876;7.372;2023-08-12T07:27:10;99074.06;;;20.03;85.02
82160;BME280;71734;50.876;7.372;2023-08-12T07:29:38;99079.66;;;20.00;84.82
82160;BME280;71734;50.876;7.372;2023-08-12T07:32:05;99076.44;;;19.95;85.92
82160;BME280;71734;50.876;7.372;2023-08-12T07:34:31;99076.25;;;19.85;85.82
82160;BME280;71734;50.876;7.372;2023-08-12T07:36:58;99078.38;;;19.93;85.81
82160;BME280;71734;50.876;7.372;2023-08-12T07:39:24;99070.16;;;20.07;85.37
82160;BME280;71734;50.876;7.372;2023-08-12T07:41:51;99090.44;;;20.00;85.57
82160;BME280;71734;50.876;7.372;2023-08-12T07:44:17;99095.03;;;20.22;85.38
82160;BME280;71734;50.876;7.372;2023-08-12T07:46:45;99093.22;;;20.22;85.83
82160;BME280;71734;50.876;7.372;2023-08-12T07:49:12;99106.09;;;20.06;85.85
82160;BME280;71734;50.876;7.372;2023-08-12T07:51:38;99108.78;;;20.06;84.80
82160;BME280;71734;50.876;7.372;2023-08-12T07:54:05;99114.16;;;20.06;85.55
82160;BME280;71734;50.876;7.372;2023-08-12T07:56:31;99114.31;;;20.28;85.06
82160;BME280;71734;50.876;7.372;2023-08-12T07:58:58;99115.75;;;20.21;84.41
82160;BME280;71734;50.876;7.372;2023-08-12T08:01:24;99107.06;;;20.42;84.42
82160;BME280;71734;50.876;7.372;2023-08-12T08:03:52;99098.47;;;20.36;84.79
82160;BME280;71734;50.876;7.372;2023-08-12T08:06:19;99113.88;;;20.22;84.38
82160;BME280;71734;50.876;7.372;2023-08-12T08:08:45;99106.78;;;20.33;83.91
82160;BME280;71734;50.876;7.372;2023-08-12T08:11:12;99101.28;;;20.46;84.05
82160;BME280;71734;50.876;7.372;2023-08-12T08:13:38;99098.94;;;20.18;84.59
82160;BME280;71734;50.876;7.372;2023-08-12T08:16:05;99087.09;;;20.20;84.62
82160;BME280;71734;50.876;7.372;2023-08-12T08:18:31;99082.75;;;20.30;84.54
82160;BME280;71734;50.876;7.372;2023-08-12T08:20:59;99098.91;;;20.30;83.74
82160;BME280;71734;50.876;7.372;2023-08-12T08:23:26;99095.25;;;20.31;83.74
82160;BME280;71734;50.876;7.372;2023-08-12T08:25:52;99101.19;;;20.48;84.25
82160;BME280;71734;50.876;7.372;2023-08-12T08:28:18;99105.09;;;20.44;84.24
82160;BME280;71734;50.876;7.372;2023-08-12T08:30:45;99106.88;;;20.32;83.04
82160;BME280;71734;50.876;7.372;2023-08-12T08:33:11;99097.38;;;20.39;84.39
82160;BME280;71734;50.876;7.372;2023-08-12T08:35:38;99095.56;;;20.51;84.40
82160;BME280;71734;50.876;7.372;2023-08-12T08:38:06;99096.34;;;20.64;83.21
82160;BME280;71734;50.876;7.372;2023-08-12T08:40:32;99097.06;;;20.55;81.80
82160;BME280;71734;50.876;7.372;2023-08-12T08:43:02;99093.22;;;20.46;82.44
82160;BME280;71734;50.876;7.372;2023-08-12T08:45:29;99081.72;;;20.44;81.93
82160;BME280;71734;50.876;7.372;2023-08-12T08:47:59;99083.09;;;20.50;82.48
82160;BME280;71734;50.876;7.372;2023-08-12T08:50:27;99085.56;;;20.64;82.73
82160;BME280;71734;50.876;7.372;2023-08-12T08:52:55;99098.53;;;21.05;82.91
82160;BME280;71734;50.876;7.372;2023-08-12T08:55:24;99090.13;;;21.20;81.62
82160;BME280;71734;50.876;7.372;2023-08-12T08:57:52;99096.09;;;21.02;81.91
82160;BME280;71734;50.876;7.372;2023-08-12T09:00:21;99099.13;;;21.08;81.62
82160;BME280;71734;50.876;7.372;2023-08-12T09:02:47;99107.75;;;21.13;82.81
82160;BME280;71734;50.876;7.372;2023-08-12T09:05:14;99107.22;;;21.08;80.76
82160;BME280;71734;50.876;7.372;2023-08-12T09:07:42;99109.25;;;21.40;80.95
82160;BME280;71734;50.876;7.372;2023-08-12T09:10:10;99113.66;;;21.41;81.02
82160;BME280;71734;50.876;7.372;2023-08-12T09:12:39;99121.00;;;21.27;80.96
82160;BME280;71734;50.876;7.372;2023-08-12T09:15:06;99114.88;;;21.25;81.19
82160;BME280;71734;50.876;7.372;2023-08-12T09:17:33;99111.09;;;21.50;80.62
82160;BME280;71734;50.876;7.372;2023-08-12T09:19:59;99109.22;;;21.84;79.19
82160;BME280;71734;50.876;7.372;2023-08-12T09:22:26;99118.31;;;21.72;78.81
82160;BME280;71734;50.876;7.372;2023-08-12T09:24:56;99130.81;;;21.73;79.52
82160;BME280;71734;50.876;7.372;2023-08-12T09:27:23;99124.19;;;21.66;79.87
82160;BME280;71734;50.876;7.372;2023-08-12T09:29:55;99122.84;;;21.71;80.37
82160;BME280;71734;50.876;7.372;2023-08-12T09:32:22;99124.44;;;21.74;80.31
82160;BME280;71734;50.876;7.372;2023-08-12T09:34:51;99125.78;;;21.79;78.49
82160;BME280;71734;50.876;7.372;2023-08-12T09:37:18;99127.88;;;21.65;78.91
82160;BME280;71734;50.876;7.372;2023-08-12T09:39:44;99130.31;;;21.79;78.44
82160;BME280;71734;50.876;7.372;2023-08-12T09:42:11;99119.78;;;21.76;78.33
82160;BME280;71734;50.876;7.372;2023-08-12T09:44:38;99122.72;;;21.84;78.36
82160;BME280;71734;50.876;7.372;2023-08-12T09:47:07;99126.19;;;21.64;77.55
82160;BME280;71734;50.876;7.372;2023-08-12T09:49:34;99127.88;;;21.65;75.79
82160;BME280;71734;50.876;7.372;2023-08-12T09:52:01;99115.38;;;21.64;76.49
82160;BME280;71734;50.876;7.372;2023-08-12T09:54:28;99114.88;;;21.70;76.50
82160;BME280;71734;50.876;7.372;2023-08-12T09:56:58;99121.22;;;22.02;75.00
82160;BME280;71734;50.876;7.372;2023-08-12T09:59:30;99125.88;;;21.89;76.34
82160;BME280;71734;50.876;7.372;2023-08-12T10:01:57;99115.09;;;21.89;76.35
82160;BME280;71734;50.876;7.372;2023-08-12T10:04:27;99106.66;;;21.83;76.00
82160;BME280;71734;50.876;7.372;2023-08-12T10:06:55;99107.47;;;22.05;76.57
82160;BME280;71734;50.876;7.372;2023-08-12T10:09:22;99106.28;;;21.98;75.22
82160;BME280;71734;50.876;7.372;2023-08-12T10:11:50;99116.81;;;22.12;75.85
82160;BME280;71734;50.876;7.372;2023-08-12T10:14:17;99110.94;;;21.74;75.30
82160;BME280;71734;50.876;7.372;2023-08-12T10:16:45;99113.91;;;21.60;75.29
82160;BME280;71734;50.876;7.372;2023-08-12T10:19:13;99115.59;;;21.61;77.60
82160;BME280;71734;50.876;7.372;2023-08-12T10:21:43;99113.28;;;21.56;75.69
82160;BME280;71734;50.876;7.372;2023-08-12T10:24:10;99125.06;;;21.66;76.31
82160;BME280;71734;50.876;7.372;2023-08-12T10:26:37;99128.84;;;21.75;75.76
82160;BME280;71734;50.876;7.372;2023-08-12T10:29:04;99122.97;;;21.59;75.48
82160;BME280;71734;50.876;7.372;2023-08-12T10:31:31;99117.44;;;21.94;75.13
82160;BME280;71734;50.876;7.372;2023-08-12T10:33:58;99112.38;;;22.11;76.37
82160;BME280;71734;50.876;7.372;2023-08-12T10:36:26;99115.00;;;22.34;75.06
82160;BME280;71734;50.876;7.372;2023-08-12T10:38:55;99104.81;;;22.37;75.09
82160;BME280;71734;50.876;7.372;2023-08-12T10:41:23;99120.22;;;22.14;75.17
82160;BME280;71734;50.876;7.372;2023-08-12T10:43:54;99105.91;;;22.03;75.90
82160;BME280;71734;50.876;7.372;2023-08-12T10:46:22;99100.88;;;21.87;75.01
82160;BME280;71734;50.876;7.372;2023-08-12T10:49:07;99099.91;;;21.99;76.76
82160;BME280;71734;50.876;7.372;2023-08-12T10:51:55;99096.47;;;21.97;76.22
82160;BME280;71734;50.876;7.372;2023-08-12T10:54:24;99105.31;;;21.99;75.66
82160;BME280;71734;50.876;7.372;2023-08-12T10:57:09;99086.91;;;22.04;75.67
82160;BME280;71734;50.876;7.372;2023-08-12T10:59:54;99099.75;;;22.44;75.38
82160;BME280;71734;50.876;7.372;2023-08-12T11:02:25;99077.09;;;22.56;74.52
82160;BME280;71734;50.876;7.372;2023-08-12T11:04:54;99082.16;;;22.81;73.69
82160;BME280;71734;50.876;7.372;2023-08-12T11:07:22;99085.75;;;23.12;72.73
82160;BME280;71734;50.876;7.372;2023-08-12T11:09:58;99085.25;;;22.97;73.15
82160;BME280;71734;50.876;7.372;2023-08-12T11:12:32;99079.09;;;22.95;73.84
82160;BME280;71734;50.876;7.372;2023-08-12T11:15:00;99081.75;;;23.06;72.79
82160;BME280;71734;50.876;7.372;2023-08-12T11:17:32;99063.91;;;23.25;70.27
82160;BME280;71734;50.876;7.372;2023-08-12T11:19:58;99076.72;;;23.23;71.18
82160;BME280;71734;50.876;7.372;2023-08-12T11:22:25;99073.97;;;23.13;70.63
82160;BME280;71734;50.876;7.372;2023-08-12T11:24:52;99071.09;;;22.84;72.55
82160;BME280;71734;50.876;7.372;2023-08-12T11:27:21;99072.47;;;22.47;72.67
82160;BME280;71734;50.876;7.372;2023-08-12T11:29:49;99064.16;;;22.39;73.32
82160;BME280;71734;50.876;7.372;2023-08-12T11:32:15;99067.44;;;22.21;73.39
82160;BME280;71734;50.876;7.372;2023-08-12T11:34:42;99059.16;;;21.91;74.90
82160;BME280;71734;50.876;7.372;2023-08-12T11:37:09;99057.72;;;21.87;74.83
82160;BME280;71734;50.876;7.372;2023-08-12T11:39:36;99058.94;;;21.94;74.17
82160;BME280;71734;50.876;7.372;2023-08-12T11:42:04;99054.25;;;21.85;76.07
82160;BME280;71734;50.876;7.372;2023-08-12T11:44:34;99054.41;;;21.95;75.50
82160;BME280;71734;50.876;7.372;2023-08-12T11:47:04;99049.47;;;21.89;75.17
82160;BME280;71734;50.876;7.372;2023-08-12T11:49:31;99048.16;;;21.83;76.11
82160;BME280;71734;50.876;7.372;2023-08-12T11:52:00;99039.06;;;21.84;75.00
82160;BME280;71734;50.876;7.372;2023-08-12T11:54:26;99033.94;;;21.92;75.11
82160;BME280;71734;50.876;7.372;2023-08-12T11:56:55;99031.81;;;21.85;74.91
82160;BME280;71734;50.876;7.372;2023-08-12T11:59:22;99029.88;;;21.87;75.90
82160;BME280;71734;50.876;7.372;2023-08-12T12:01:50;99031.69;;;21.86;74.72
82160;BME280;71734;50.876;7.372;2023-08-12T12:04:16;99035.84;;;21.90;75.26
82160;BME280;71734;50.876;7.372;2023-08-12T12:06:45;99025.06;;;21.90;75.26
82160;BME280;71734;50.876;7.372;2023-08-12T12:09:12;99028.53;;;22.24;75.05
82160;BME280;71734;50.876;7.372;2023-08-12T12:11:40;99029.31;;;22.15;73.33
82160;BME280;71734;50.876;7.372;2023-08-12T12:14:08;99034.25;;;22.31;73.23
82160;BME280;71734;50.876;7.372;2023-08-12T12:16:37;99042.25;;;22.32;73.46
82160;BME280;71734;50.876;7.372;2023-08-12T12:19:09;99030.84;;;22.29;72.71
82160;BME280;71734;50.876;7.372;2023-08-12T12:21:39;99021.56;;;22.42;71.63
82160;BME280;71734;50.876;7.372;2023-08-12T12:24:06;99025.50;;;22.59;71.87
82160;BME280;71734;50.876;7.372;2023-08-12T12:26:33;99030.22;;;22.57;71.40
82160;BME280;71734;50.876;7.372;2023-08-12T12:28:59;99028.97;;;22.82;72.28
82160;BME280;71734;50.876;7.372;2023-08-12T12:31:27;99026.06;;;22.94;72.47
82160;BME280;71734;50.876;7.372;2023-08-12T12:33:53;99041.75;;;22.80;72.04
82160;BME280;71734;50.876;7.372;2023-08-12T12:36:21;99045.28;;;22.59;71.77
82160;BME280;71734;50.876;7.372;2023-08-12T12:38:48;99041.00;;;22.57;72.54
82160;BME280;71734;50.876;7.372;2023-08-12T12:41:14;99050.88;;;22.47;72.64
82160;BME280;71734;50.876;7.372;2023-08-12T12:43:41;99044.38;;;22.49;72.81
82160;BME280;71734;50.876;7.372;2023-08-12T12:46:07;99060.75;;;22.37;72.98
82160;BME280;71734;50.876;7.372;2023-08-12T12:48:34;99063.31;;;22.38;73.04
82160;BME280;71734;50.876;7.372;2023-08-12T12:51:04;99062.22;;;22.41;73.04
82160;BME280;71734;50.876;7.372;2023-08-12T12:53:32;99058.47;;;22.53;72.57
82160;BME280;71734;50.876;7.372;2023-08-12T12:55:59;99079.91;;;22.54;73.40
82160;BME280;71734;50.876;7.372;2023-08-12T12:58:29;99064.09;;;22.50;72.56
82160;BME280;71734;50.876;7.372;2023-08-12T13:00:55;99068.19;;;22.44;73.03
82160;BME280;71734;50.876;7.372;2023-08-12T13:03:22;99066.63;;;22.62;71.69
82160;BME280;71734;50.876;7.372;2023-08-12T13:05:49;99072.34;;;22.80;70.31
82160;BME280;71734;50.876;7.372;2023-08-12T13:08:16;99073.06;;;22.82;71.97
82160;BME280;71734;50.876;7.372;2023-08-12T13:10:44;99077.94;;;22.88;71.16
82160;BME280;71734;50.876;7.372;2023-08-12T13:13:13;99068.66;;;22.81;70.30
82160;BME280;71734;50.876;7.372;2023-08-12T13:15:40;99075.22;;;22.88;71.27
82160;BME280;71734;50.876;7.372;2023-08-12T13:18:07;99073.31;;;22.79;70.55
82160;BME280;71734;50.876;7.372;2023-08-12T13:20:34;99068.94;;;22.78;71.43
82160;BME280;71734;50.876;7.372;2023-08-12T13:23:00;99080.50;;;22.90;72.82
82160;BME280;71734;50.876;7.372;2023-08-12T13:25:28;99072.53;;;22.88;70.49
82160;BME280;71734;50.876;7.372;2023-08-12T13:27:57;99062.09;;;23.04;70.82
82160;BME280;71734;50.876;7.372;2023-08-12T13:30:23;99069.25;;;23.15;69.66
82160;BME280;71734;50.876;7.372;2023-08-12T13:32:50;99058.50;;;23.25;70.48
82160;BME280;71734;50.876;7.372;2023-08-12T13:35:17;99065.38;;;23.08;68.47
82160;BME280;71734;50.876;7.372;2023-08-12T13:37:43;99051.53;;;23.22;69.66
82160;BME280;71734;50.876;7.372;2023-08-12T13:40:10;99052.22;;;23.24;69.56
82160;BME280;71734;50.876;7.372;2023-08-12T13:42:38;99050.03;;;23.39;69.70
82160;BME280;71734;50.876;7.372;2023-08-12T13:45:06;99055.81;;;23.65;68.99
82160;BME280;71734;50.876;7.372;2023-08-12T13:47:33;99045.88;;;23.65;68.83
82160;BME280;71734;50.876;7.372;2023-08-12T13:50:00;99032.75;;;23.51;70.16
82160;BME280;71734;50.876;7.372;2023-08-12T13:52:26;99040.16;;;23.58;68.21
82160;BME280;71734;50.876;7.372;2023-08-12T13:54:53;99047.38;;;23.48;68.41
82160;BME280;71734;50.876;7.372;2023-08-12T13:57:19;99047.41;;;23.28;69.46
82160;BME280;71734;50.876;7.372;2023-08-12T13:59:46;99027.53;;;23.38;70.20
82160;BME280;71734;50.876;7.372;2023-08-12T14:02:14;99043.25;;;23.24;70.85
82160;BME280;71734;50.876;7.372;2023-08-12T14:04:41;99048.84;;;23.32;71.63
82160;BME280;71734;50.876;7.372;2023-08-12T14:07:07;99050.28;;;23.36;71.23
82160;BME280;71734;50.876;7.372;2023-08-12T14:09:34;99045.06;;;23.13;72.22
82160;BME280;71734;50.876;7.372;2023-08-12T14:12:01;99047.63;;;23.15;70.52
82160;BME280;71734;50.876;7.372;2023-08-12T14:14:29;99050.44;;;23.04;73.53
82160;BME280;71734;50.876;7.372;2023-08-12T14:16:56;99069.22;;;23.05;73.33
82160;BME280;71734;50.876;7.372;2023-08-12T14:19:24;99076.06;;;23.09;73.30
82160;BME280;71734;50.876;7.372;2023-08-12T14:21:50;99079.47;;;23.11;72.82